Time;durP1;ratioP1;P1;durP2;ratioP2;P2;SDS_P1;SDS_P2;PMS_P1;PMS_P2;Temp;Humidity;BMP_temperature;BMP_pressure;BME280_temperature;BME280_humidity;BME280_pressure;Samples;Min_cycle;Max_cycle;Signal;HPM_P1;HPM_P2
2022/06/03 00:01:39;;;;;;;6.25;3.47;;;10.30;99.90;;;;;;5030719;28;20033;-46
2022/06/03 00:04:37;;;;;;;3.72;2.90;;;10.30;99.90;;;;;;5031566;28;20018;-48
2022/06/03 00:07:32;;;;;;;2.92;2.60;;;10.20;99.90;;;;;;5031372;28;20028;-47
2022/06/03 00:10:20;;;;;;;3.78;2.90;;;10.20;99.90;;;;;;5045542;28;20025;-46
2022/06/03 00:12:50;;;;;;;3.63;2.90;;;10.00;99.90;;;;;;5050155;28;20036;-46
2022/06/03 00:15:47;;;;;;;4.68;3.53;;;10.00;99.90;;;;;;5049289;28;20336;-50
2022/06/03 00:18:31;;;;;;;3.28;2.97;;;10.00;99.90;;;;;;5050584;28;20018;-49
2022/06/03 00:21:00;;;;;;;3.63;3.15;;;10.00;99.90;;;;;;5050010;28;20052;-47
2022/06/03 00:24:01;;;;;;;2.78;2.58;;;9.90;99.90;;;;;;5050566;28;20021;-47
2022/06/03 00:26:44;;;;;;;;;;;9.80;99.90;;;;;;5049351;28;20025;-46
2022/06/03 00:29:36;;;;;;;4.03;2.92;;;9.90;99.90;;;;;;5048927;28;20439;-46
2022/06/03 00:32:35;;;;;;;3.13;2.83;;;9.80;99.90;;;;;;5050088;28;20358;-47
2022/06/03 00:35:39;;;;;;;5.40;3.53;;;9.80;99.90;;;;;;5050489;28;20114;-47
2022/06/03 00:38:34;;;;;;;5.72;3.22;;;9.80;99.90;;;;;;5050118;28;20021;-45
2022/06/03 00:41:25;;;;;;;3.45;2.90;;;9.90;99.90;;;;;;5045109;28;20462;-47
2022/06/03 00:44:15;;;;;;;5.30;3.15;;;9.90;99.90;;;;;;5049992;28;20530;-46
2022/06/03 00:46:59;;;;;;;3.40;2.95;;;9.80;99.90;;;;;;5049922;28;20466;-47
2022/06/03 00:49:36;;;;;;;4.32;3.55;;;9.80;99.90;;;;;;5049544;28;20072;-46
2022/06/03 00:52:41;;;;;;;3.33;3.03;;;9.80;99.90;;;;;;5049493;28;20436;-48
2022/06/03 00:55:25;;;;;;;3.72;2.88;;;9.70;99.90;;;;;;5050075;28;20032;-47
2022/06/03 00:58:12;;;;;;;3.28;2.97;;;9.70;99.90;;;;;;5049498;28;20036;-45
2022/06/03 01:00:56;;;;;;;3.40;3.10;;;9.60;99.90;;;;;;5048962;28;20062;-45
2022/06/03 01:03:35;;;;;;;5.63;3.25;;;9.60;99.90;;;;;;5049747;28;20071;-45
2022/06/03 01:06:12;;;;;;;5.07;3.20;;;9.50;99.90;;;;;;5049573;28;20025;-46
2022/06/03 01:09:04;;;;;;;3.83;3.05;;;9.50;99.90;;;;;;5049354;28;20465;-46
2022/06/03 01:12:11;;;;;;;3.63;3.33;;;9.50;99.90;;;;;;5027719;28;20470;-45
2022/06/03 01:14:53;;;;;;;4.13;2.75;;;9.40;99.90;;;;;;5028017;28;20419;-45
2022/06/03 01:18:00;;;;;;;3.88;3.22;;;9.50;99.90;;;;;;5029627;28;20048;-48
2022/06/03 01:21:03;;;;;;;4.25;3.17;;;9.40;99.90;;;;;;5029099;28;20080;-46
2022/06/03 01:23:40;;;;;;;3.38;2.88;;;9.40;99.90;;;;;;5029259;28;20280;-46
2022/06/03 01:26:40;;;;;;;4.30;3.30;;;9.30;99.90;;;;;;5029453;28;20025;-45
2022/06/03 01:29:42;;;;;;;3.33;3.03;;;9.30;99.90;;;;;;5029117;28;20020;-46
2022/06/03 01:32:27;;;;;;;5.82;3.13;;;9.40;99.90;;;;;;5029507;28;20075;-47
2022/06/03 01:35:20;;;;;;;4.72;2.90;;;9.40;99.90;;;;;;5029231;28;20033;-48
2022/06/03 01:37:52;;;;;;;7.40;3.30;;;9.40;99.90;;;;;;5034869;28;20493;-46
2022/06/03 01:40:55;;;;;;;3.22;2.65;;;9.30;99.90;;;;;;5038666;28;20315;-47
2022/06/03 01:43:36;;;;;;;7.20;3.33;;;9.20;99.90;;;;;;5018034;28;20018;-45
2022/06/03 01:46:38;;;;;;;5.18;3.33;;;9.20;99.90;;;;;;5009133;28;20133;-49
2022/06/03 01:49:51;;;;;;;5.00;3.53;;;9.20;99.90;;;;;;5009221;28;20049;-46
2022/06/03 01:52:34;;;;;;;3.05;2.75;;;9.20;99.90;;;;;;4967406;28;20034;-47
2022/06/03 01:55:25;;;;;;;5.10;3.63;;;9.20;99.90;;;;;;5008828;28;20113;-49
2022/06/03 01:58:16;;;;;;;4.38;3.20;;;9.10;99.90;;;;;;5009095;28;20029;-46
2022/06/03 02:00:47;;;;;;;3.65;3.25;;;9.10;99.90;;;;;;5007765;28;20028;-45
2022/06/03 02:03:42;;;;;;;4.05;3.60;;;9.10;99.90;;;;;;5009121;28;20093;-48
2022/06/03 02:06:59;;;;;;;4.65;3.47;;;9.10;99.90;;;;;;5009015;28;20406;-48
2022/06/03 02:09:50;;;;;;;4.25;3.72;;;9.00;99.90;;;;;;5025492;28;20033;-47
2022/06/03 02:12:38;;;;;;;3.70;3.40;;;9.00;99.90;;;;;;5008742;28;20024;-47
2022/06/03 02:15:23;;;;;;;5.00;3.95;;;8.90;99.90;;;;;;5008799;28;20073;-46
2022/06/03 02:18:13;;;;;;;3.67;3.38;;;8.80;99.90;;;;;;5009001;28;20030;-48
2022/06/03 02:21:05;;;;;;;5.07;3.58;;;8.80;99.90;;;;;;5008294;28;20092;-46
2022/06/03 02:23:54;;;;;;;4.38;3.97;;;8.70;99.90;;;;;;5009102;28;20041;-47
2022/06/03 02:26:40;;;;;;;4.13;3.70;;;8.70;99.90;;;;;;5008915;28;20014;-46
2022/06/03 02:32:08;;;;;;;6.63;4.00;;;8.60;99.90;;;;;;5008730;28;20041;-47
2022/06/03 02:34:46;;;;;;;5.10;3.55;;;8.50;99.90;;;;;;5008503;28;20030;-46
2022/06/03 02:37:48;;;;;;;4.28;3.88;;;8.60;99.90;;;;;;5008423;28;20467;-49
2022/06/03 02:40:56;;;;;;;4.55;4.15;;;8.50;99.90;;;;;;5001026;28;20232;-48
2022/06/03 02:43:37;;;;;;;4.85;4.32;;;8.50;99.90;;;;;;5008560;28;20478;-50
2022/06/03 02:46:27;;;;;;;5.15;4.68;;;8.50;99.90;;;;;;5008590;28;20026;-46
2022/06/03 02:49:41;;;;;;;8.10;6.03;;;8.50;99.90;;;;;;5012166;28;20044;-48
2022/06/03 02:52:45;;;;;;;5.85;5.15;;;8.50;99.90;;;;;;5010288;28;20068;-49
2022/06/03 02:55:42;;;;;;;7.18;6.03;;;8.50;99.90;;;;;;5028185;28;20433;-49
2022/06/03 02:58:50;;;;;;;8.38;5.80;;;8.50;99.90;;;;;;4994678;28;20091;-47
2022/06/03 03:01:24;;;;;;;6.57;5.88;;;8.60;99.90;;;;;;5026003;28;20096;-49
2022/06/03 03:04:08;;;;;;;7.05;6.35;;;8.60;99.90;;;;;;5028266;28;20017;-45
2022/06/03 03:07:01;;;;;;;9.80;6.15;;;8.60;99.90;;;;;;5026948;28;20022;-46
2022/06/03 03:09:55;;;;;;;6.45;5.75;;;8.60;99.90;;;;;;5025085;28;20089;-47
2022/06/03 03:12:53;;;;;;;10.10;6.10;;;8.60;99.90;;;;;;5009606;28;20037;-45
2022/06/03 03:15:43;;;;;;;6.80;5.97;;;8.60;99.90;;;;;;5012317;28;20040;-46
2022/06/03 03:18:24;;;;;;;6.18;5.57;;;8.60;99.90;;;;;;5012079;28;20289;-46
2022/06/03 03:21:23;;;;;;;7.93;6.75;;;8.60;99.90;;;;;;5011288;28;20555;-48
2022/06/03 03:24:13;;;;;;;12.77;9.52;;;8.50;99.90;;;;;;5011641;28;20053;-48
2022/06/03 03:27:03;;;;;;;13.50;11.05;;;8.50;99.90;;;;;;5011609;28;20501;-46
2022/06/03 03:30:01;;;;;;;14.05;9.98;;;8.50;99.90;;;;;;5011553;28;20025;-47
2022/06/03 03:32:57;;;;;;;8.95;7.82;;;8.50;99.90;;;;;;5011860;28;20022;-47
2022/06/03 03:36:01;;;;;;;11.27;7.72;;;8.40;99.90;;;;;;5011873;28;20080;-46
2022/06/03 03:39:09;;;;;;;10.00;7.50;;;8.40;99.90;;;;;;5022822;28;20041;-46
2022/06/03 03:41:41;;;;;;;8.02;6.45;;;8.50;99.90;;;;;;5026110;28;20033;-46
2022/06/03 03:44:37;;;;;;;8.73;6.97;;;8.60;99.90;;;;;;5011400;28;20383;-47
2022/06/03 03:47:34;;;;;;;9.15;7.03;;;8.60;99.90;;;;;;5010197;28;20458;-46
2022/06/03 03:50:30;;;;;;;7.45;6.60;;;8.70;99.90;;;;;;5010750;28;20050;-48
2022/06/03 03:53:08;;;;;;;6.85;5.65;;;8.70;99.90;;;;;;5011130;28;20475;-46
2022/06/03 03:56:04;;;;;;;6.70;6.00;;;8.70;99.90;;;;;;5010289;28;20077;-47
2022/06/03 03:58:52;;;;;;;6.95;6.25;;;8.70;99.90;;;;;;5011116;28;20145;-48
2022/06/03 04:01:36;;;;;;;8.05;6.25;;;8.80;99.90;;;;;;5010403;28;20517;-48
2022/06/03 04:04:59;;;;;;;5.90;5.25;;;8.80;99.90;;;;;;5011219;28;20406;-46
2022/06/03 04:07:43;;;;;;;6.10;5.47;;;8.80;99.90;;;;;;4933553;29;20031;-47
2022/06/03 04:10:39;;;;;;;6.05;5.45;;;8.90;99.90;;;;;;4949019;29;20035;-46
2022/06/03 04:13:41;;;;;;;7.07;6.20;;;8.90;99.90;;;;;;5005228;28;20598;-49
2022/06/03 04:16:10;;;;;;;7.25;6.35;;;8.90;99.90;;;;;;5010972;28;20477;-46
2022/06/03 04:18:49;;;;;;;6.15;5.10;;;9.00;99.90;;;;;;5010983;28;20434;-46
2022/06/03 04:21:54;;;;;;;6.20;5.60;;;9.00;99.90;;;;;;5010171;28;20118;-47
2022/06/03 04:24:32;;;;;;;7.57;5.68;;;9.00;99.90;;;;;;5010212;28;20433;-48
2022/06/03 04:27:38;;;;;;;5.85;5.20;;;9.00;99.90;;;;;;5010486;28;20030;-46
2022/06/03 04:30:28;;;;;;;6.07;5.10;;;9.10;99.90;;;;;;5010136;28;20022;-46
2022/06/03 04:33:15;;;;;;;5.77;4.97;;;9.10;99.90;;;;;;5010656;28;20057;-46
2022/06/03 04:36:15;;;;;;;5.57;4.32;;;9.20;99.90;;;;;;5010909;28;20081;-47
2022/06/03 04:39:38;;;;;;;6.40;4.30;;;9.30;99.90;;;;;;5024078;28;20021;-46
2022/06/03 04:42:22;;;;;;;8.32;4.78;;;9.30;99.90;;;;;;4968431;28;20035;-46
2022/06/03 04:45:12;;;;;;;5.72;4.90;;;9.30;99.90;;;;;;4968618;28;20237;-49
2022/06/03 04:48:17;;;;;;;7.85;4.95;;;9.40;99.90;;;;;;5005312;28;20115;-47
2022/06/03 04:51:12;;;;;;;5.50;5.00;;;9.50;99.90;;;;;;5009886;28;20025;-46
2022/06/03 04:54:16;;;;;;;7.25;5.07;;;9.60;99.90;;;;;;5010124;28;20033;-47
2022/06/03 04:57:19;;;;;;;7.28;4.90;;;9.60;99.90;;;;;;5008773;28;20030;-46
2022/06/03 05:00:00;;;;;;;6.03;4.10;;;9.70;99.90;;;;;;5009477;28;20410;-49
2022/06/03 05:02:34;;;;;;;10.82;5.30;;;9.80;99.90;;;;;;5010009;28;20280;-47
2022/06/03 05:05:17;;;;;;;5.10;4.60;;;9.90;99.90;;;;;;5010018;28;20188;-47
2022/06/03 05:08:25;;;;;;;8.57;6.38;;;9.90;99.90;;;;;;5015177;28;20172;-47
2022/06/03 05:11:24;;;;;;;6.00;4.88;;;10.00;99.90;;;;;;5021863;28;20490;-46
2022/06/03 05:14:19;;;;;;;5.53;4.78;;;10.10;99.90;;;;;;5029214;28;20057;-47
2022/06/03 05:17:17;;;;;;;6.63;5.20;;;10.20;99.90;;;;;;5029453;28;20532;-46
2022/06/03 05:20:00;;;;;;;7.80;6.22;;;10.30;99.90;;;;;;5028622;28;20030;-46
2022/06/03 05:23:09;;;;;;;5.90;4.68;;;10.40;99.90;;;;;;5029449;28;20091;-46
2022/06/03 05:26:32;;;;;;;9.38;4.93;;;10.50;99.90;;;;;;5018998;28;20101;-48
2022/06/03 05:29:05;;;;;;;5.40;4.88;;;10.60;99.90;;;;;;4987172;28;20026;-47
2022/06/03 05:31:55;;;;;;;5.90;4.72;;;10.70;99.90;;;;;;4986798;28;20030;-47
2022/06/03 05:34:56;;;;;;;8.13;5.15;;;10.80;99.90;;;;;;5020429;28;20445;-46
2022/06/03 05:37:49;;;;;;;9.57;5.43;;;10.80;99.90;;;;;;5029152;28;20479;-47
2022/06/03 05:40:49;;;;;;;7.97;6.00;;;10.90;99.90;;;;;;5017607;28;20034;-46
2022/06/03 05:43:14;;;;;;;8.65;5.55;;;11.00;99.90;;;;;;5024922;28;20045;-47
2022/06/03 05:45:55;;;;;;;7.00;5.68;;;11.10;99.90;;;;;;5009751;28;20022;-49
2022/06/03 05:48:45;;;;;;;6.00;5.22;;;11.20;99.90;;;;;;5009414;28;20022;-47
2022/06/03 05:51:39;;;;;;;8.55;5.80;;;11.30;99.90;;;;;;5021528;28;20280;-47
2022/06/03 05:54:12;;;;;;;12.63;6.57;;;11.40;99.90;;;;;;5011012;28;20117;-47
2022/06/03 05:57:16;;;;;;;7.55;5.43;;;11.40;99.90;;;;;;5009151;28;20026;-46
2022/06/03 06:00:21;;;;;;;6.03;5.10;;;11.60;99.90;;;;;;5017736;28;20036;-46
2022/06/03 06:03:02;;;;;;;13.32;5.78;;;11.60;99.90;;;;;;4971765;28;20094;-47
2022/06/03 06:05:46;;;;;;;8.02;6.25;;;11.70;99.90;;;;;;5024572;28;20029;-47
2022/06/03 06:08:25;;;;;;;9.00;5.80;;;11.80;99.90;;;;;;5008615;28;20029;-48
2022/06/03 06:11:13;;;;;;;10.30;5.93;;;11.80;99.90;;;;;;5006714;28;20021;-47
2022/06/03 06:14:07;;;;;;;10.13;5.95;;;11.90;99.90;;;;;;5016852;28;20053;-48
2022/06/03 06:16:42;;;;;;;7.57;6.03;;;12.00;99.90;;;;;;5008573;28;20109;-48
2022/06/03 06:19:29;;;;;;;8.63;5.63;;;12.10;99.90;;;;;;5008688;28;20034;-48
2022/06/03 06:22:20;;;;;;;6.35;5.65;;;12.20;99.90;;;;;;5008544;28;20387;-47
2022/06/03 06:24:49;;;;;;;10.50;6.28;;;12.30;99.90;;;;;;5006829;28;20491;-49
2022/06/03 06:27:18;;;;;;;9.65;5.70;;;12.40;99.90;;;;;;5015266;28;20366;-47
2022/06/03 06:30:02;;;;;;;7.68;5.75;;;12.50;99.90;;;;;;5023046;28;20052;-47
2022/06/03 06:32:45;;;;;;;7.38;5.30;;;12.70;99.90;;;;;;5016672;28;20026;-47
2022/06/03 06:35:32;;;;;;;6.85;5.18;;;12.80;99.90;;;;;;5019389;28;20407;-45
2022/06/03 06:38:14;;;;;;;7.25;4.82;;;12.90;99.90;;;;;;5007730;28;20495;-48
2022/06/03 06:41:02;;;;;;;8.25;5.05;;;13.00;99.90;;;;;;5025485;28;20033;-46
2022/06/03 06:43:51;;;;;;;8.48;5.15;;;13.20;99.90;;;;;;5009510;28;20041;-46
2022/06/03 06:46:47;;;;;;;6.07;4.82;;;13.40;99.90;;;;;;5026648;28;20080;-47
2022/06/03 06:49:48;;;;;;;6.55;4.60;;;13.50;99.90;;;;;;5012758;28;20022;-47
2022/06/03 06:52:24;;;;;;;8.82;4.53;;;13.70;99.90;;;;;;4992805;28;20037;-47
2022/06/03 06:55:12;;;;;;;6.35;4.25;;;13.80;99.90;;;;;;5012551;28;20021;-46
2022/06/03 06:57:47;;;;;;;5.20;4.43;;;14.00;99.90;;;;;;5030533;28;20144;-47
2022/06/03 07:00:25;;;;;;;6.75;4.72;;;14.10;99.90;;;;;;5014290;28;20121;-46
2022/06/03 07:03:23;;;;;;;5.80;4.55;;;14.20;99.90;;;;;;5012657;28;20145;-46
2022/06/03 07:06:05;;;;;;;5.25;4.20;;;14.30;99.90;;;;;;5004359;28;20067;-46
2022/06/03 07:09:12;;;;;;;8.98;4.00;;;14.50;99.90;;;;;;5027440;28;20113;-47
2022/06/03 07:11:50;;;;;;;5.70;4.28;;;14.70;99.90;;;;;;5004655;28;20045;-46
2022/06/03 07:14:21;;;;;;;9.57;4.70;;;14.90;99.90;;;;;;5022208;28;20037;-46
2022/06/03 07:19:53;;;;;;;8.60;4.65;;;15.20;99.90;;;;;;5024314;28;20504;-47
2022/06/03 07:22:36;;;;;;;7.63;3.70;;;15.40;99.90;;;;;;5013814;28;20070;-46
2022/06/03 07:25:16;;;;;;;5.53;4.07;;;15.50;99.90;;;;;;5025928;28;20025;-47
2022/06/03 07:28:08;;;;;;;7.13;3.80;;;15.70;99.90;;;;;;5012722;28;20506;-48
2022/06/03 07:30:49;;;;;;;5.95;3.30;;;16.00;99.90;;;;;;5022315;28;20820;-47
2022/06/03 07:33:30;;;;;;;7.30;4.10;;;16.10;99.90;;;;;;5030666;28;20522;-47
2022/06/03 07:36:03;;;;;;;4.07;3.67;;;16.30;99.90;;;;;;5024626;28;20026;-46
2022/06/03 07:38:37;;;;;;;3.95;3.03;;;16.40;99.90;;;;;;5016040;28;20033;-47
2022/06/03 07:41:14;;;;;;;4.10;2.95;;;16.70;99.90;;;;;;5021822;28;20057;-47
2022/06/03 07:44:06;;;;;;;4.72;3.17;;;16.90;99.90;;;;;;5011584;28;20038;-47
2022/06/03 07:46:49;;;;;;;5.78;2.47;;;17.10;99.90;;;;;;5011774;28;20028;-46
2022/06/03 07:49:16;;;;;;;7.30;3.97;;;17.30;99.90;;;;;;5011916;28;20109;-47
2022/06/03 07:51:46;;;;;;;4.55;3.17;;;17.50;99.90;;;;;;5009569;28;20056;-47
2022/06/03 07:54:26;;;;;;;8.50;3.55;;;17.70;99.90;;;;;;5011128;28;20034;-46
2022/06/03 07:57:20;;;;;;;7.03;3.33;;;17.90;99.90;;;;;;5011246;28;20026;-49
2022/06/03 07:59:46;;;;;;;5.70;3.33;;;18.30;99.00;;;;;;5008992;28;20038;-47
2022/06/03 08:02:11;;;;;;;8.38;3.97;;;18.50;98.10;;;;;;5011606;28;20479;-47
2022/06/03 08:04:38;;;;;;;4.90;3.30;;;18.60;97.60;;;;;;5011270;28;20033;-47
2022/06/03 08:12:58;;;;;;;4.43;2.47;;;19.80;96.10;;;;;;5009035;28;20076;-45
2022/06/03 08:15:35;;;;;;;4.80;2.40;;;20.90;95.10;;;;;;5009964;28;20290;-47
2022/06/03 08:18:05;;;;;;;6.72;2.10;;;22.60;92.10;;;;;;5010591;28;20061;-46
2022/06/03 08:20:40;;;;;;;6.47;1.90;;;24.20;81.90;;;;;;5009664;28;20538;-47
2022/06/03 08:23:06;;;;;;;5.65;2.40;;;25.20;74.50;;;;;;5010556;28;20025;-47
2022/06/03 08:25:38;;;;;;;2.70;1.80;;;26.90;67.20;;;;;;5010457;28;20037;-47
2022/06/03 08:28:10;;;;;;;2.38;1.73;;;27.50;64.10;;;;;;5010380;28;20188;-47
2022/06/03 08:30:39;;;;;;;2.03;1.52;;;28.60;58.40;;;;;;5008322;28;20054;-46
2022/06/03 08:33:10;;;;;;;2.10;1.60;;;28.80;56.10;;;;;;5013450;28;20022;-47
2022/06/03 08:35:42;;;;;;;6.97;1.40;;;29.70;53.60;;;;;;5049071;28;20047;-47
2022/06/03 08:38:14;;;;;;;5.00;1.63;;;30.10;52.90;;;;;;5047438;28;20074;-48
2022/06/03 08:41:04;;;;;;;3.15;1.50;;;30.80;51.00;;;;;;5019914;28;20437;-47
2022/06/03 08:43:53;;;;;;;3.85;1.27;;;32.60;46.00;;;;;;5028089;28;20018;-47
2022/06/03 08:46:35;;;;;;;6.18;1.67;;;31.90;47.50;;;;;;5028221;28;20778;-48
2022/06/03 08:49:06;;;;;;;2.40;1.23;;;31.80;46.20;;;;;;5029644;28;20033;-50
2022/06/03 08:51:47;;;;;;;2.72;1.27;;;32.10;44.40;;;;;;5027641;28;20035;-48
2022/06/03 08:54:28;;;;;;;3.75;1.23;;;33.10;43.30;;;;;;5029509;28;20021;-48
2022/06/03 08:57:00;;;;;;;4.70;1.35;;;33.50;43.70;;;;;;5029234;28;20021;-49
2022/06/03 08:59:42;;;;;;;3.28;1.50;;;34.00;42.30;;;;;;5029502;28;20037;-46
2022/06/03 09:02:12;;;;;;;2.55;1.10;;;35.20;40.90;;;;;;5029478;28;20041;-49
2022/06/03 09:04:50;;;;;;;1.50;1.10;;;35.30;42.10;;;;;;5027744;28;20027;-50
2022/06/03 09:07:27;;;;;;;1.77;1.30;;;35.40;40.20;;;;;;5029389;28;20453;-49
2022/06/03 09:10:16;;;;;;;2.53;1.30;;;35.10;39.50;;;;;;5028347;28;20021;-48
2022/06/03 09:12:47;;;;;;;1.95;1.13;;;35.30;39.50;;;;;;5008993;28;20080;-46
2022/06/03 09:15:20;;;;;;;1.10;1.00;;;35.90;38.20;;;;;;5009429;28;20022;-47
2022/06/03 09:17:54;;;;;;;1.30;1.10;;;36.20;37.90;;;;;;5007944;28;20055;-49
2022/06/03 09:20:23;;;;;;;4.13;1.20;;;36.10;37.30;;;;;;5008250;28;20018;-47
2022/06/03 09:22:55;;;;;;;2.45;1.08;;;35.30;36.90;;;;;;5009044;28;20486;-47
2022/06/03 09:25:21;;;;;;;1.00;1.00;;;35.60;37.40;;;;;;5009364;28;20497;-49
2022/06/03 09:27:48;;;;;;;1.15;1.05;;;34.10;38.10;;;;;;5008896;28;20022;-47
2022/06/03 09:30:26;;;;;;;2.80;1.20;;;34.70;37.60;;;;;;5008493;28;20028;-48
2022/06/03 09:32:54;;;;;;;1.27;1.10;;;34.80;37.50;;;;;;5009381;28;20029;-46
2022/06/03 09:35:24;;;;;;;1.58;1.00;;;34.50;36.00;;;;;;5009062;28;20394;-47
2022/06/03 09:37:53;;;;;;;1.65;1.00;;;34.80;37.60;;;;;;5008905;28;20521;-49
2022/06/03 09:40:22;;;;;;;1.38;1.02;;;35.30;37.70;;;;;;5026329;28;20040;-47
2022/06/03 09:42:53;;;;;;;;;;;35.60;37.30;;;;;;5007392;28;20040;-50
2022/06/03 09:45:20;;;;;;;1.45;1.30;;;34.90;37.60;;;;;;5007715;28;19912;-50
2022/06/03 09:47:47;;;;;;;2.35;1.17;;;35.80;37.90;;;;;;5009574;28;20032;-47
2022/06/03 09:50:18;;;;;;;1.85;0.85;;;36.80;36.70;;;;;;5008623;28;20026;-48
2022/06/03 09:52:44;;;;;;;1.20;1.10;;;36.40;36.00;;;;;;5007702;28;20495;-48
2022/06/03 09:55:29;;;;;;;1.58;1.15;;;37.10;36.80;;;;;;5009493;28;20141;-49
2022/06/03 09:57:57;;;;;;;2.70;1.10;;;37.20;37.40;;;;;;5008125;28;20165;-50
2022/06/03 10:00:26;;;;;;;1.20;1.10;;;36.90;36.70;;;;;;5008627;28;20038;-50
2022/06/03 10:02:56;;;;;;;2.40;0.95;;;36.10;38.10;;;;;;5009266;28;20026;-50
2022/06/03 10:05:21;;;;;;;;;;;36.00;38.60;;;;;;5009508;28;20081;-49
2022/06/03 10:07:56;;;;;;;3.35;1.20;;;36.40;36.00;;;;;;5008868;28;19909;-53
2022/06/03 10:13:08;;;;;;;2.28;1.20;;;37.30;37.20;;;;;;5009499;28;20036;-55
2022/06/03 10:15:40;;;;;;;1.38;1.10;;;37.50;35.70;;;;;;5007713;28;20026;-54
2022/06/03 10:18:18;;;;;;;1.35;1.13;;;37.30;36.10;;;;;;5007445;28;20014;-54
2022/06/03 10:20:44;;;;;;;1.17;1.02;;;37.60;35.60;;;;;;5006207;28;20022;-53
2022/06/03 10:23:11;;;;;;;1.85;1.40;;;36.90;36.50;;;;;;5007158;28;20033;-53
2022/06/03 10:25:40;;;;;;;3.25;1.00;;;36.20;35.60;;;;;;5007652;28;20018;-51
2022/06/03 10:28:08;;;;;;;1.10;1.00;;;36.40;35.70;;;;;;5007298;28;20022;-54
2022/06/03 10:30:39;;;;;;;1.35;1.25;;;36.00;36.20;;;;;;5007713;28;20047;-54
2022/06/03 10:33:05;;;;;;;4.07;1.45;;;35.90;39.00;;;;;;5008698;28;20033;-54
2022/06/03 10:35:38;;;;;;;3.08;1.10;;;36.30;37.10;;;;;;5008834;28;20076;-54
2022/06/03 10:38:04;;;;;;;3.55;1.20;;;36.50;37.80;;;;;;5010118;28;20426;-53
2022/06/03 10:40:31;;;;;;;1.58;1.27;;;36.80;36.40;;;;;;5023319;28;20017;-54
2022/06/03 10:43:00;;;;;;;3.00;0.93;;;36.40;36.80;;;;;;5008712;28;20026;-54
2022/06/03 10:45:38;;;;;;;3.77;1.30;;;35.90;37.80;;;;;;5008402;28;20076;-54
2022/06/03 10:48:23;;;;;;;1.98;1.20;;;36.30;36.50;;;;;;5007468;28;20022;-55
2022/06/03 10:50:49;;;;;;;1.70;1.10;;;36.50;36.60;;;;;;5007875;28;20112;-55
2022/06/03 11:01:51;;;;;;;0.90;0.90;;;36.20;36.70;;;;;;5007943;28;20437;-55
2022/06/03 11:04:23;;;;;;;1.35;1.20;;;37.10;35.70;;;;;;5008796;28;20040;-55
2022/06/03 11:06:48;;;;;;;2.20;1.27;;;36.60;36.60;;;;;;5008529;28;20036;-55
2022/06/03 11:09:15;;;;;;;3.15;1.13;;;36.50;37.50;;;;;;5017479;28;20112;-55
2022/06/03 11:11:49;;;;;;;2.30;1.20;;;36.80;35.80;;;;;;5014939;28;20469;-55
2022/06/03 11:14:30;;;;;;;3.28;1.05;;;34.70;35.50;;;;;;5008120;28;20081;-55
2022/06/03 11:17:21;;;;;;;3.47;1.40;;;35.80;36.30;;;;;;5008383;28;20022;-55
2022/06/03 11:19:56;;;;;;;1.88;1.45;;;36.10;35.40;;;;;;5007774;28;20121;-55
2022/06/03 11:22:36;;;;;;;3.20;1.30;;;37.00;36.00;;;;;;5007473;28;20539;-55
2022/06/03 11:25:10;;;;;;;2.50;1.42;;;34.80;35.00;;;;;;5008111;28;20026;-55
2022/06/03 11:27:49;;;;;;;5.05;1.30;;;34.80;37.20;;;;;;5008538;28;20022;-55
2022/06/03 11:30:27;;;;;;;3.03;1.00;;;35.30;36.50;;;;;;5007803;28;20022;-55
2022/06/03 11:32:59;;;;;;;2.65;1.38;;;35.50;36.60;;;;;;5009425;28;20292;-55
2022/06/03 11:35:38;;;;;;;5.47;1.58;;;35.50;37.10;;;;;;5012089;28;20029;-55
2022/06/03 11:38:06;;;;;;;2.63;1.58;;;35.40;37.90;;;;;;5013297;28;20053;-55
2022/06/03 11:40:38;;;;;;;2.25;1.25;;;35.40;37.00;;;;;;5027718;28;20030;-55
2022/06/03 11:43:13;;;;;;;1.30;1.02;;;35.20;38.10;;;;;;5011826;28;20087;-55
2022/06/03 11:45:47;;;;;;;1.70;1.20;;;35.80;39.00;;;;;;5011632;28;20484;-53
2022/06/03 11:48:30;;;;;;;1.95;1.30;;;35.70;37.40;;;;;;5011740;28;20034;-58
2022/06/03 11:50:58;;;;;;;1.52;1.10;;;35.50;37.60;;;;;;5010924;28;20454;-54
2022/06/03 11:53:28;;;;;;;2.20;1.20;;;35.40;38.30;;;;;;5011123;28;20033;-54
2022/06/03 11:55:56;;;;;;;1.95;1.52;;;35.10;36.60;;;;;;5011517;28;20032;-53
2022/06/03 11:58:36;;;;;;;1.38;1.27;;;34.40;41.20;;;;;;5011177;28;20109;-53
2022/06/03 12:01:09;;;;;;;2.63;1.10;;;33.50;38.30;;;;;;5010681;28;20122;-53
2022/06/03 12:04:00;;;;;;;1.55;1.45;;;32.90;39.30;;;;;;5011617;28;20022;-51
2022/06/03 12:06:35;;;;;;;2.38;1.50;;;32.20;39.30;;;;;;5011764;28;20100;-51
2022/06/03 12:09:45;;;;;;;2.25;1.25;;;31.90;39.60;;;;;;5019901;28;20033;-52
2022/06/03 12:15:26;;;;;;;2.65;1.50;;;30.00;41.30;;;;;;5031390;28;20055;-51
2022/06/03 12:17:52;;;;;;;1.35;1.25;;;29.70;43.20;;;;;;5030971;28;20025;-51
2022/06/03 12:20:58;;;;;;;1.98;1.30;;;29.80;43.10;;;;;;5030107;28;20033;-51
2022/06/03 12:23:23;;;;;;;2.17;1.50;;;30.20;47.20;;;;;;5006668;28;20041;-51
2022/06/03 12:25:50;;;;;;;1.90;1.48;;;30.50;42.80;;;;;;5030642;28;20089;-51
2022/06/03 12:28:19;;;;;;;2.10;1.50;;;30.20;43.90;;;;;;5030667;28;20037;-51
2022/06/03 12:30:53;;;;;;;2.67;1.50;;;30.20;43.20;;;;;;5030074;28;20026;-52
2022/06/03 12:33:48;;;;;;;3.80;1.48;;;30.20;44.60;;;;;;5030427;28;20104;-51
2022/06/03 12:36:46;;;;;;;2.10;1.50;;;30.20;43.30;;;;;;5010973;28;20442;-51
2022/06/03 12:39:18;;;;;;;1.67;1.33;;;30.00;42.10;;;;;;5029830;28;20566;-52
2022/06/03 12:41:46;;;;;;;4.80;1.50;;;29.70;41.30;;;;;;5016519;28;20108;-52
2022/06/03 12:45:13;;;;;;;3.55;1.50;;;29.60;42.10;;;;;;5010098;28;20108;-51
2022/06/03 12:47:49;;;;;;;2.58;1.60;;;29.70;43.60;;;;;;5010488;28;20115;-51
2022/06/03 12:50:28;;;;;;;2.92;1.45;;;29.70;43.50;;;;;;5010204;28;20010;-51
2022/06/03 12:53:17;;;;;;;1.38;1.17;;;29.50;42.00;;;;;;5009220;28;20241;-51
2022/06/03 12:55:43;;;;;;;1.95;1.20;;;29.50;43.20;;;;;;5010330;28;20068;-52
2022/06/03 12:58:38;;;;;;;1.35;1.23;;;29.50;42.00;;;;;;5010461;28;20052;-51
2022/06/03 13:01:06;;;;;;;5.22;1.83;;;29.50;42.50;;;;;;5009835;28;20120;-51
2022/06/03 13:03:34;;;;;;;3.08;1.80;;;29.80;43.00;;;;;;5010486;28;20013;-51
2022/06/03 13:06:05;;;;;;;2.28;1.58;;;29.80;42.60;;;;;;5010334;28;20026;-51
2022/06/03 13:08:33;;;;;;;2.17;1.52;;;29.90;42.70;;;;;;5014729;28;20044;-52
2022/06/03 13:11:05;;;;;;;1.95;1.50;;;30.00;42.60;;;;;;5022472;28;20096;-51
2022/06/03 13:13:31;;;;;;;2.70;1.77;;;29.70;43.30;;;;;;5009732;28;20052;-52
2022/06/03 13:16:22;;;;;;;2.17;1.90;;;29.30;42.80;;;;;;5009892;28;20177;-51
2022/06/03 13:18:56;;;;;;;1.52;1.42;;;29.40;42.20;;;;;;5009950;28;20570;-51
2022/06/03 13:21:28;;;;;;;3.08;1.70;;;29.50;42.60;;;;;;5009808;28;20045;-51
2022/06/03 13:24:21;;;;;;;1.55;1.45;;;29.20;42.00;;;;;;5010399;28;20017;-51
2022/06/03 13:27:10;;;;;;;1.40;1.30;;;29.10;43.80;;;;;;5008845;28;20045;-51
2022/06/03 13:29:51;;;;;;;2.45;1.30;;;29.40;42.10;;;;;;5007815;28;20037;-51
2022/06/03 13:32:21;;;;;;;4.30;1.50;;;29.30;41.70;;;;;;5010251;28;20025;-51
2022/06/03 13:34:47;;;;;;;1.85;1.23;;;29.20;42.50;;;;;;5010101;28;20065;-51
2022/06/03 13:37:30;;;;;;;4.80;1.67;;;29.30;44.10;;;;;;5009862;28;20089;-52
2022/06/03 13:39:56;;;;;;;2.50;1.27;;;29.20;43.90;;;;;;5025257;28;20025;-52
2022/06/03 13:45:11;;;;;;;2.60;1.70;;;29.40;45.00;;;;;;5009834;28;20025;-52
2022/06/03 13:47:49;;;;;;;2.53;1.80;;;29.70;42.60;;;;;;5009671;28;20018;-52
2022/06/03 13:50:14;;;;;;;1.98;1.45;;;29.60;44.00;;;;;;5008789;28;20451;-52
2022/06/03 13:52:45;;;;;;;2.60;1.58;;;29.90;43.60;;;;;;5009440;28;20054;-51
2022/06/03 13:55:34;;;;;;;1.40;1.25;;;29.90;43.30;;;;;;5008711;28;20084;-51
2022/06/03 13:58:19;;;;;;;2.22;1.60;;;30.20;43.60;;;;;;5009361;28;20177;-51
2022/06/03 14:00:50;;;;;;;2.95;1.40;;;30.30;43.50;;;;;;5008702;28;20021;-51
2022/06/03 14:03:39;;;;;;;1.38;1.27;;;30.50;42.80;;;;;;5009286;28;20037;-51
2022/06/03 14:06:17;;;;;;;1.80;1.50;;;30.30;42.20;;;;;;5009681;28;20028;-51
2022/06/03 14:08:55;;;;;;;1.48;1.38;;;30.00;41.70;;;;;;5015643;28;20029;-52
2022/06/03 14:11:31;;;;;;;1.40;1.30;;;29.90;42.80;;;;;;5018304;28;20033;-51
2022/06/03 14:14:16;;;;;;;4.65;1.50;;;29.90;44.40;;;;;;5008944;28;20026;-51
2022/06/03 14:16:48;;;;;;;1.95;1.60;;;29.80;44.50;;;;;;5009020;28;20045;-51
2022/06/03 14:20:05;;;;;;;2.05;1.42;;;29.40;44.40;;;;;;5009084;28;20026;-51
2022/06/03 14:22:33;;;;;;;2.88;1.65;;;29.30;43.10;;;;;;4975154;28;20481;-52
2022/06/03 14:25:22;;;;;;;1.95;1.40;;;29.40;43.50;;;;;;5008768;28;20105;-52
2022/06/03 14:28:01;;;;;;;2.80;1.48;;;29.40;42.60;;;;;;5007681;28;20026;-50
2022/06/03 14:30:54;;;;;;;7.20;2.47;;;29.10;44.40;;;;;;5008209;28;20030;-52
2022/06/03 14:33:22;;;;;;;4.22;1.67;;;28.90;43.30;;;;;;5008886;28;20021;-52
2022/06/03 14:35:54;;;;;;;4.30;1.92;;;28.70;44.50;;;;;;5009197;28;20390;-51
2022/06/03 14:38:31;;;;;;;3.08;1.90;;;28.60;44.50;;;;;;5012054;28;20022;-51
2022/06/03 14:40:58;;;;;;;1.63;1.52;;;28.40;45.40;;;;;;5021373;28;20091;-51